Time;durP1;ratioP1;P1;durP2;ratioP2;P2;SDS_P1;SDS_P2;PMS_P1;PMS_P2;Temp;Humidity;BMP_temperature;BMP_pressure;BME280_temperature;BME280_humidity;BME280_pressure;Samples;Min_cycle;Max_cycle;Signal;HPM_P1;HPM_P2
2023/06/26 00:00:47;;;;;;;8.43;5.13;;;23.70;1.00;;;;;;5054759;28;20225;-88
2023/06/26 00:03:15;;;;;;;9.40;5.63;;;23.60;1.00;;;;;;5055035;28;20635;-86
2023/06/26 00:05:42;;;;;;;8.77;5.33;;;23.50;1.00;;;;;;5054775;28;20182;-86
2023/06/26 00:08:08;;;;;;;5.70;5.10;;;23.50;1.00;;;;;;5055962;28;20172;-84
2023/06/26 00:10:34;;;;;;;7.77;4.70;;;23.30;1.00;;;;;;5057081;28;20175;-86
2023/06/26 00:13:02;;;;;;;6.10;4.73;;;23.30;1.00;;;;;;5057126;28;20645;-86
2023/06/26 00:15:31;;;;;;;6.87;4.07;;;23.10;1.00;;;;;;5057672;28;20173;-84
2023/06/26 00:18:00;;;;;;;5.70;3.93;;;23.00;1.00;;;;;;5054806;28;20202;-89
2023/06/26 00:20:25;;;;;;;8.53;3.90;;;22.90;1.00;;;;;;5054332;28;20194;-87
2023/06/26 00:22:53;;;;;;;5.87;3.83;;;22.80;1.00;;;;;;5036548;28;20655;-87
2023/06/26 00:25:19;;;;;;;6.20;3.40;;;22.80;1.00;;;;;;5054842;28;20184;-88
2023/06/26 00:27:45;;;;;;;4.20;3.53;;;22.70;1.00;;;;;;5054278;28;20254;-86
2023/06/26 00:30:11;;;;;;;5.23;4.00;;;22.70;1.00;;;;;;5040085;28;20621;-87
2023/06/26 00:32:37;;;;;;;6.37;3.37;;;22.60;1.00;;;;;;5061367;28;20181;-88
2023/06/26 00:35:02;;;;;;;6.07;3.63;;;22.60;1.00;;;;;;5055109;28;20223;-89
2023/06/26 00:37:28;;;;;;;5.67;3.50;;;22.60;1.00;;;;;;5054848;28;20616;-88
2023/06/26 00:39:54;;;;;;;4.97;3.90;;;22.50;1.00;;;;;;5058284;28;20264;-87
2023/06/26 00:42:19;;;;;;;5.10;3.77;;;22.60;1.00;;;;;;5044275;28;20172;-87
2023/06/26 00:44:45;;;;;;;5.67;4.03;;;22.60;1.00;;;;;;5041505;28;20195;-87
2023/06/26 00:47:15;;;;;;;6.20;3.70;;;22.50;1.00;;;;;;5061554;28;20191;-87
2023/06/26 00:49:41;;;;;;;5.10;3.83;;;22.50;1.00;;;;;;5065893;28;20186;-86
2023/06/26 00:52:07;;;;;;;7.03;3.97;;;22.50;1.00;;;;;;5061795;28;20223;-86
2023/06/26 00:54:33;;;;;;;5.60;3.90;;;22.50;1.00;;;;;;5048672;28;20207;-86
2023/06/26 00:56:58;;;;;;;6.63;3.70;;;22.40;1.00;;;;;;5066990;28;20189;-87
2023/06/26 00:59:24;;;;;;;7.33;3.80;;;22.30;1.00;;;;;;5055370;28;20222;-87
2023/06/26 01:01:50;;;;;;;6.23;3.33;;;22.30;1.00;;;;;;5053920;28;20176;-87
2023/06/26 01:04:19;;;;;;;4.77;3.83;;;22.00;1.00;;;;;;5053391;28;20532;-87
2023/06/26 01:06:49;;;;;;;6.97;3.90;;;22.00;1.00;;;;;;5053384;28;20168;-87
2023/06/26 01:09:19;;;;;;;8.47;4.37;;;22.00;1.00;;;;;;5036927;28;20195;-87
2023/06/26 01:11:45;;;;;;;4.57;3.40;;;22.00;1.00;;;;;;5054448;28;20178;-87
2023/06/26 01:14:11;;;;;;;8.83;3.90;;;22.10;1.00;;;;;;5054751;28;20217;-87
2023/06/26 01:16:39;;;;;;;7.40;4.23;;;21.90;1.00;;;;;;5054305;28;20175;-87
2023/06/26 01:19:11;;;;;;;5.73;3.33;;;21.80;1.00;;;;;;5054938;28;20201;-86
2023/06/26 01:21:43;;;;;;;4.80;3.43;;;21.70;1.00;;;;;;5053663;28;20174;-87
2023/06/26 01:24:20;;;;;;;6.50;3.27;;;21.70;1.00;;;;;;5053846;28;20180;-89
2023/06/26 01:26:49;;;;;;;5.23;3.70;;;21.50;1.00;;;;;;5077842;28;20156;-80
2023/06/26 01:29:16;;;;;;;7.30;3.60;;;21.50;1.00;;;;;;5077736;28;20164;-84
2023/06/26 01:31:46;;;;;;;5.83;3.80;;;21.40;1.00;;;;;;5077051;28;20151;-81
2023/06/26 01:34:12;;;;;;;5.93;3.60;;;21.40;1.00;;;;;;5059292;28;20230;-86
2023/06/26 01:36:38;;;;;;;6.70;3.70;;;21.40;1.00;;;;;;5065747;28;20176;-86
2023/06/26 01:39:03;;;;;;;4.77;3.43;;;21.40;1.00;;;;;;5070914;28;20211;-87
2023/06/26 01:41:29;;;;;;;6.20;3.53;;;21.30;1.00;;;;;;5061012;28;20171;-87
2023/06/26 01:43:58;;;;;;;5.43;3.60;;;21.40;1.00;;;;;;5069073;28;20550;-86
2023/06/26 01:46:28;;;;;;;6.00;3.60;;;21.40;1.00;;;;;;5041190;28;20179;-87
2023/06/26 01:49:22;;;;;;;6.90;3.60;;;21.40;1.00;;;;;;5057850;28;20176;-87
2023/06/26 01:52:00;;;;;;;5.97;4.03;;;21.30;1.00;;;;;;5059823;28;20170;-83
2023/06/26 01:54:30;;;;;;;6.73;3.57;;;21.30;1.00;;;;;;5057737;28;20204;-80
2023/06/26 01:56:57;;;;;;;6.13;3.80;;;21.20;1.00;;;;;;5074116;28;20223;-82
2023/06/26 01:59:26;;;;;;;7.30;3.50;;;21.20;1.00;;;;;;5067452;28;20198;-85
2023/06/26 02:02:42;;;;;;;7.80;4.17;;;21.20;1.00;;;;;;5068017;28;20164;-86
2023/06/26 02:05:08;;;;;;;7.47;3.40;;;21.20;1.00;;;;;;5051151;28;20181;-85
2023/06/26 02:07:34;;;;;;;5.40;3.40;;;21.10;1.00;;;;;;5070556;28;20170;-84
2023/06/26 02:10:00;;;;;;;7.23;4.13;;;21.10;1.90;;;;;;5072376;28;20259;-83
2023/06/26 02:12:26;;;;;;;7.33;3.93;;;21.10;2.10;;;;;;5073156;28;20152;-83
2023/06/26 02:14:51;;;;;;;7.97;3.57;;;21.10;5.40;;;;;;5073776;28;20204;-83
2023/06/26 02:17:17;;;;;;;7.20;3.20;;;21.10;7.90;;;;;;5075317;28;20262;-83
2023/06/26 02:19:47;;;;;;;7.47;3.70;;;21.20;4.30;;;;;;5074414;28;20274;-82
2023/06/26 02:22:14;;;;;;;5.40;3.60;;;21.10;9.40;;;;;;5073373;28;20160;-85
2023/06/26 02:24:40;;;;;;;6.80;3.70;;;21.10;9.40;;;;;;5072955;28;20205;-84
2023/06/26 02:27:06;;;;;;;6.73;3.87;;;20.90;13.90;;;;;;5073097;28;20224;-86
2023/06/26 02:29:32;;;;;;;6.77;3.73;;;20.90;17.00;;;;;;5072111;28;20165;-84
2023/06/26 02:31:57;;;;;;;7.00;3.97;;;20.90;19.00;;;;;;5070067;28;20211;-84
2023/06/26 02:34:24;;;;;;;6.90;3.87;;;20.70;25.10;;;;;;5054439;28;20656;-84
2023/06/26 02:36:50;;;;;;;8.37;4.27;;;20.60;27.60;;;;;;5070144;28;20195;-85
2023/06/26 02:39:15;;;;;;;7.80;3.93;;;20.70;29.30;;;;;;5068074;28;20207;-86
2023/06/26 02:41:41;;;;;;;8.27;3.77;;;20.60;31.30;;;;;;5069033;28;20170;-84
2023/06/26 02:44:07;;;;;;;8.23;4.10;;;20.70;30.20;;;;;;5068115;28;20165;-84
2023/06/26 02:46:35;;;;;;;9.00;4.13;;;20.60;34.20;;;;;;5070083;28;20179;-85
2023/06/26 02:49:01;;;;;;;6.70;4.03;;;20.50;38.40;;;;;;5049937;28;20167;-86
2023/06/26 02:51:27;;;;;;;8.00;4.43;;;20.50;41.10;;;;;;5070450;28;20181;-87
2023/06/26 02:54:12;;;;;;;6.47;4.10;;;20.40;43.60;;;;;;5072691;28;20166;-81
2023/06/26 02:56:38;;;;;;;11.97;4.53;;;20.30;46.80;;;;;;5078444;28;20179;-84
2023/06/26 02:59:04;;;;;;;9.07;4.53;;;20.40;49.10;;;;;;5070336;28;20212;-85
2023/06/26 03:01:29;;;;;;;7.90;4.50;;;20.40;49.30;;;;;;5066919;28;20162;-84
2023/06/26 03:03:55;;;;;;;9.77;4.10;;;20.30;50.00;;;;;;5071265;28;20180;-86
2023/06/26 03:06:21;;;;;;;8.97;4.67;;;20.30;51.90;;;;;;5072404;28;20167;-85
2023/06/26 03:08:46;;;;;;;8.20;4.27;;;20.30;51.00;;;;;;5071318;28;20174;-84
2023/06/26 03:11:12;;;;;;;7.00;4.40;;;20.30;52.10;;;;;;5069076;28;20172;-87
2023/06/26 03:13:38;;;;;;;9.57;4.63;;;20.20;54.80;;;;;;5067123;28;20193;-87
2023/06/26 03:16:04;;;;;;;7.10;4.20;;;20.20;57.70;;;;;;5048796;28;20255;-88
2023/06/26 03:18:32;;;;;;;9.13;4.47;;;20.20;57.00;;;;;;5067454;28;20235;-81
2023/06/26 03:21:00;;;;;;;9.10;4.90;;;20.10;58.80;;;;;;5071417;28;20162;-85
2023/06/26 03:23:26;;;;;;;9.07;4.57;;;20.10;60.30;;;;;;5072917;28;20194;-84
2023/06/26 03:25:52;;;;;;;9.30;4.73;;;20.10;61.20;;;;;;5072832;28;20251;-84
2023/06/26 03:28:17;;;;;;;9.07;4.93;;;20.00;62.40;;;;;;5071984;28;20190;-86
2023/06/26 03:30:43;;;;;;;12.57;4.90;;;19.90;65.70;;;;;;5055584;28;20263;-87
2023/06/26 03:33:09;;;;;;;10.17;4.53;;;19.90;67.50;;;;;;5071938;28;20177;-87
2023/06/26 03:35:35;;;;;;;8.77;4.77;;;19.80;69.80;;;;;;5062701;28;20165;-86
2023/06/26 03:38:01;;;;;;;11.10;5.10;;;19.80;69.40;;;;;;5056130;28;20235;-86
2023/06/26 03:40:28;;;;;;;11.50;4.93;;;19.60;76.10;;;;;;5055876;28;20204;-87
2023/06/26 03:42:53;;;;;;;11.73;5.60;;;19.60;77.90;;;;;;5038565;28;20260;-88
2023/06/26 03:45:19;;;;;;;10.10;4.97;;;19.70;77.80;;;;;;5056037;28;20175;-87
2023/06/26 03:47:48;;;;;;;9.10;5.00;;;19.70;78.20;;;;;;5055628;28;20265;-86
2023/06/26 03:50:15;;;;;;;11.10;5.30;;;19.60;78.00;;;;;;5055622;28;20630;-86
2023/06/26 03:52:40;;;;;;;11.57;5.10;;;19.60;79.30;;;;;;5038713;28;20202;-88
2023/06/26 03:55:06;;;;;;;12.07;5.40;;;19.60;77.20;;;;;;5055801;28;20206;-87
2023/06/26 03:57:32;;;;;;;12.37;5.50;;;19.60;77.20;;;;;;5038063;28;20186;-87
2023/06/26 03:59:57;;;;;;;9.60;5.20;;;19.40;75.80;;;;;;5057519;28;20195;-88
2023/06/26 04:02:23;;;;;;;12.97;5.10;;;19.30;81.10;;;;;;5055955;28;20176;-86
2023/06/26 04:04:50;;;;;;;11.60;4.57;;;19.30;79.70;;;;;;5056554;28;20657;-88
2023/06/26 04:07:15;;;;;;;14.77;5.00;;;19.20;78.90;;;;;;5055637;28;20169;-87
2023/06/26 04:09:41;;;;;;;9.93;4.93;;;19.10;78.70;;;;;;5057488;28;20257;-85
2023/06/26 04:12:07;;;;;;;14.13;5.33;;;19.20;77.60;;;;;;5057868;28;20168;-88
2023/06/26 04:14:32;;;;;;;13.63;5.00;;;19.40;71.40;;;;;;5055069;28;20312;-87
2023/06/26 04:17:01;;;;;;;16.53;5.30;;;19.40;69.10;;;;;;5055940;28;20165;-86
2023/06/26 04:19:27;;;;;;;10.50;4.57;;;19.40;70.30;;;;;;5037951;28;20220;-88
2023/06/26 04:21:52;;;;;;;10.03;4.30;;;19.30;69.50;;;;;;5055789;28;20632;-87
2023/06/26 04:24:19;;;;;;;13.20;4.53;;;19.30;64.40;;;;;;5055536;28;20661;-87
2023/06/26 04:26:45;;;;;;;13.43;4.83;;;19.20;66.00;;;;;;5057454;28;20177;-87
2023/06/26 04:29:11;;;;;;;13.60;4.73;;;19.10;62.40;;;;;;5037349;28;20173;-86
2023/06/26 04:31:36;;;;;;;12.80;4.40;;;19.10;62.00;;;;;;5056206;28;20165;-87
2023/06/26 04:34:02;;;;;;;11.90;4.80;;;19.10;62.20;;;;;;5062880;28;20192;-84
2023/06/26 04:36:28;;;;;;;9.03;4.33;;;19.00;61.90;;;;;;5041356;28;20196;-85
2023/06/26 04:38:55;;;;;;;11.33;4.63;;;19.00;59.40;;;;;;5038223;28;20301;-86
2023/06/26 04:41:21;;;;;;;14.43;5.00;;;19.00;64.40;;;;;;5056663;28;20193;-86
2023/06/26 04:43:46;;;;;;;16.83;4.30;;;19.00;62.20;;;;;;5039198;28;20177;-87
2023/06/26 04:46:12;;;;;;;16.40;4.60;;;19.00;56.50;;;;;;5058505;28;20204;-86
2023/06/26 04:48:39;;;;;;;12.57;4.63;;;19.10;53.10;;;;;;5061673;28;20175;-82
2023/06/26 04:51:04;;;;;;;13.63;4.87;;;19.00;53.90;;;;;;5077953;28;20168;-83
2023/06/26 04:53:30;;;;;;;11.60;4.60;;;19.10;52.50;;;;;;5077098;28;20175;-86
2023/06/26 04:55:56;;;;;;;11.10;4.07;;;19.10;53.30;;;;;;5071612;28;20188;-87
2023/06/26 04:58:22;;;;;;;15.77;4.90;;;19.10;50.50;;;;;;5069886;28;20219;-85
2023/06/26 05:00:48;;;;;;;10.33;4.30;;;19.20;46.60;;;;;;5041111;28;20172;-87
2023/06/26 05:03:16;;;;;;;8.43;3.57;;;19.10;46.00;;;;;;5056300;28;20225;-86
2023/06/26 05:05:43;;;;;;;10.93;4.70;;;19.10;45.30;;;;;;5036514;28;20266;-88
2023/06/26 05:08:18;;;;;;;12.57;4.30;;;19.10;48.00;;;;;;5069965;28;20254;-83
2023/06/26 05:10:44;;;;;;;10.53;4.20;;;19.20;45.00;;;;;;5069104;28;20156;-83
2023/06/26 05:13:10;;;;;;;12.00;4.33;;;19.20;39.40;;;;;;5075827;28;20180;-81
2023/06/26 05:15:36;;;;;;;8.70;3.50;;;19.10;39.60;;;;;;5076081;28;20162;-80
2023/06/26 05:18:02;;;;;;;11.80;4.53;;;19.00;36.30;;;;;;5068186;28;20199;-83
2023/06/26 05:20:32;;;;;;;15.77;4.67;;;18.80;45.90;;;;;;5073534;28;20209;-85
2023/06/26 05:22:58;;;;;;;13.73;4.23;;;18.90;44.40;;;;;;5055813;28;20220;-86
2023/06/26 05:25:36;;;;;;;10.43;3.80;;;18.90;36.50;;;;;;5055243;28;20591;-84
2023/06/26 05:28:05;;;;;;;8.27;3.60;;;18.80;41.70;;;;;;5054282;28;20164;-86
2023/06/26 05:30:31;;;;;;;15.73;3.97;;;18.80;36.90;;;;;;5053805;28;20171;-87
2023/06/26 05:33:00;;;;;;;10.47;3.60;;;18.80;36.80;;;;;;5037951;28;20169;-87
2023/06/26 05:35:31;;;;;;;11.63;3.80;;;18.80;34.40;;;;;;5059936;28;20177;-83
2023/06/26 05:37:58;;;;;;;7.67;3.33;;;18.70;33.60;;;;;;5054419;28;20245;-87
2023/06/26 05:40:25;;;;;;;9.83;3.60;;;18.70;33.50;;;;;;5037590;28;20185;-87
2023/06/26 05:42:51;;;;;;;10.00;3.63;;;18.80;31.00;;;;;;5057977;28;20614;-84
2023/06/26 05:45:17;;;;;;;8.50;3.50;;;19.00;27.00;;;;;;5040821;28;20267;-87
2023/06/26 05:47:43;;;;;;;9.43;3.80;;;18.90;22.00;;;;;;5056952;28;20240;-83
2023/06/26 05:50:09;;;;;;;10.23;3.33;;;18.90;23.70;;;;;;5056792;28;20478;-84
2023/06/26 05:52:36;;;;;;;10.13;3.60;;;19.00;20.90;;;;;;5057020;28;20174;-85
2023/06/26 05:55:03;;;;;;;8.03;3.40;;;19.10;16.30;;;;;;5058076;28;20225;-86
2023/06/26 05:57:30;;;;;;;7.40;3.07;;;19.20;15.70;;;;;;5057813;28;20182;-85
2023/06/26 05:59:56;;;;;;;9.33;2.93;;;19.20;15.90;;;;;;5058190;28;20209;-87
2023/06/26 06:02:22;;;;;;;10.53;3.20;;;19.30;11.20;;;;;;5059133;28;20170;-85
2023/06/26 06:04:48;;;;;;;10.53;3.13;;;19.40;5.60;;;;;;5046854;28;20194;-85
2023/06/26 06:07:14;;;;;;;8.27;2.80;;;19.30;7.60;;;;;;5063166;28;20166;-89
2023/06/26 06:09:39;;;;;;;7.83;2.83;;;19.30;6.70;;;;;;5044239;28;20179;-82
2023/06/26 06:12:06;;;;;;;7.90;3.20;;;19.10;5.80;;;;;;5070659;28;20151;-84
2023/06/26 06:14:33;;;;;;;9.37;3.10;;;19.00;8.20;;;;;;5050112;28;20174;-84
2023/06/26 06:16:58;;;;;;;9.20;2.63;;;19.00;11.70;;;;;;5040179;28;20550;-89
2023/06/26 06:19:24;;;;;;;9.13;3.23;;;19.00;10.50;;;;;;5058323;28;20216;-90
2023/06/26 06:21:51;;;;;;;9.03;2.73;;;19.10;9.10;;;;;;5057556;28;20169;-87
2023/06/26 06:24:17;;;;;;;7.97;2.60;;;19.20;3.20;;;;;;5039460;28;20275;-86
2023/06/26 06:26:43;;;;;;;6.70;2.53;;;19.20;7.40;;;;;;5057865;28;20627;-87
2023/06/26 06:29:09;;;;;;;6.60;2.63;;;19.10;6.50;;;;;;5059834;28;20182;-82
2023/06/26 06:31:35;;;;;;;9.30;2.87;;;19.20;4.30;;;;;;5065984;28;20227;-84
2023/06/26 06:34:00;;;;;;;7.93;2.83;;;19.10;8.60;;;;;;5044091;28;20714;-84
2023/06/26 06:36:26;;;;;;;5.53;2.27;;;19.10;7.30;;;;;;5058226;28;20169;-90
2023/06/26 06:38:53;;;;;;;6.40;2.50;;;19.10;1.60;;;;;;5061581;28;20205;-87
2023/06/26 06:41:20;;;;;;;7.40;2.67;;;19.10;1.00;;;;;;5035700;28;20182;-86
2023/06/26 06:43:47;;;;;;;7.40;2.77;;;19.10;4.30;;;;;;5057945;28;20184;-87
2023/06/26 06:46:12;;;;;;;6.67;2.20;;;19.30;2.90;;;;;;5056643;28;20189;-87
2023/06/26 06:48:38;;;;;;;14.47;3.17;;;19.40;1.00;;;;;;5075780;28;20187;-83
2023/06/26 06:51:04;;;;;;;8.20;2.50;;;19.30;1.00;;;;;;5074513;28;20234;-84
2023/06/26 06:53:30;;;;;;;6.60;2.37;;;19.30;1.00;;;;;;5076261;28;20252;-80
2023/06/26 06:55:58;;;;;;;5.40;2.40;;;19.40;1.00;;;;;;5075874;28;20211;-83
2023/06/26 06:58:26;;;;;;;8.63;2.20;;;19.30;1.00;;;;;;5051199;28;20207;-87
2023/06/26 07:00:51;;;;;;;8.03;2.40;;;19.40;1.00;;;;;;5074190;28;20271;-81
2023/06/26 07:03:17;;;;;;;7.40;2.20;;;19.50;1.00;;;;;;5077403;28;20202;-85
2023/06/26 07:05:44;;;;;;;7.07;2.70;;;19.50;1.00;;;;;;5075566;28;20169;-87
2023/06/26 07:08:09;;;;;;;8.90;2.73;;;19.50;1.00;;;;;;5076655;28;20269;-85
2023/06/26 07:10:36;;;;;;;8.43;2.17;;;19.70;1.00;;;;;;5077258;28;20165;-85
2023/06/26 07:13:01;;;;;;;5.00;2.20;;;19.90;1.00;;;;;;5050435;28;20171;-85
2023/06/26 07:15:27;;;;;;;10.37;4.30;;;19.70;1.00;;;;;;5042643;28;20203;-86
2023/06/26 07:17:54;;;;;;;15.83;6.80;;;19.70;1.00;;;;;;5056539;28;20173;-82
2023/06/26 07:20:22;;;;;;;7.83;2.23;;;19.90;1.00;;;;;;5030674;28;20188;-88
2023/06/26 07:22:49;;;;;;;8.83;2.40;;;20.20;1.00;;;;;;5051833;28;20166;-84
2023/06/26 07:25:14;;;;;;;6.70;2.57;;;20.20;1.00;;;;;;5041060;28;20184;-81
2023/06/26 07:27:41;;;;;;;9.33;2.33;;;20.30;1.00;;;;;;5056501;28;20172;-85
2023/06/26 07:30:08;;;;;;;7.27;2.27;;;20.40;1.00;;;;;;5031468;28;20223;-86
2023/06/26 07:32:34;;;;;;;7.00;2.93;;;20.50;1.00;;;;;;5048238;28;20655;-86
2023/06/26 07:35:00;;;;;;;7.67;2.50;;;20.30;1.00;;;;;;5026392;28;20173;-85
2023/06/26 07:37:26;;;;;;;9.37;2.50;;;20.30;1.00;;;;;;5031166;28;20229;-81
2023/06/26 07:39:52;;;;;;;7.70;3.97;;;20.30;1.00;;;;;;5037048;28;20226;-85
2023/06/26 07:42:18;;;;;;;7.83;3.73;;;20.40;1.00;;;;;;5053113;28;20244;-86
2023/06/26 07:44:44;;;;;;;8.10;2.50;;;20.50;1.00;;;;;;5054967;28;20177;-85
2023/06/26 07:47:10;;;;;;;12.20;8.33;;;20.60;1.00;;;;;;5056273;28;20173;-86
2023/06/26 07:49:38;;;;;;;6.97;2.60;;;20.60;1.00;;;;;;5039443;28;20192;-87
2023/06/26 07:52:05;;;;;;;7.83;2.30;;;20.70;1.00;;;;;;5046504;28;20185;-85
2023/06/26 07:54:30;;;;;;;9.07;2.50;;;20.50;1.00;;;;;;5011303;28;20201;-87
2023/06/26 07:57:03;;;;;;;6.77;2.17;;;20.30;1.00;;;;;;5047027;28;20181;-86
2023/06/26 07:59:29;;;;;;;8.57;2.70;;;20.20;1.00;;;;;;5044252;28;20227;-87
2023/06/26 08:01:57;;;;;;;6.40;1.97;;;20.30;1.00;;;;;;5040509;28;20287;-87
2023/06/26 08:04:25;;;;;;;9.97;2.70;;;20.50;1.00;;;;;;5037078;28;20191;-87
2023/06/26 08:06:52;;;;;;;9.10;4.70;;;20.60;1.00;;;;;;5043865;28;20154;-84
2023/06/26 08:09:23;;;;;;;7.57;3.10;;;20.70;1.00;;;;;;5030764;28;20191;-83
2023/06/26 08:11:50;;;;;;;9.97;3.40;;;20.90;1.00;;;;;;5058014;28;20177;-83
2023/06/26 08:14:16;;;;;;;22.53;12.50;;;20.80;1.00;;;;;;5051435;28;20176;-83
2023/06/26 08:16:43;;;;;;;10.50;3.03;;;20.90;1.00;;;;;;5053294;28;20169;-82
2023/06/26 08:19:16;;;;;;;4.43;1.83;;;20.90;1.00;;;;;;5046608;28;20201;-83
2023/06/26 08:21:48;;;;;;;6.47;2.07;;;20.90;1.00;;;;;;5045435;28;20184;-86
2023/06/26 08:24:18;;;;;;;4.97;1.80;;;20.90;1.00;;;;;;5039291;28;20190;-86
2023/06/26 08:26:46;;;;;;;4.47;1.60;;;20.90;1.00;;;;;;5027334;28;20198;-84
2023/06/26 08:29:12;;;;;;;4.67;1.73;;;20.80;1.00;;;;;;5049223;28;20161;-86
2023/06/26 08:31:38;;;;;;;4.47;2.10;;;20.50;1.00;;;;;;5033264;28;20199;-85
2023/06/26 08:34:04;;;;;;;5.47;2.80;;;20.40;1.00;;;;;;5040858;28;20157;-83
2023/06/26 08:36:31;;;;;;;14.77;6.90;;;20.50;1.00;;;;;;5056853;28;20160;-83
2023/06/26 08:38:57;;;;;;;9.83;4.23;;;20.60;1.00;;;;;;5053569;28;20206;-83
2023/06/26 08:41:24;;;;;;;7.43;2.30;;;20.80;1.00;;;;;;5040239;28;20156;-86
2023/06/26 08:44:23;;;;;;;6.17;2.17;;;21.10;1.00;;;;;;5042653;28;20314;-83
2023/06/26 08:47:07;;;;;;;5.70;1.87;;;21.20;1.00;;;;;;5039094;28;20195;-89
2023/06/26 08:49:48;;;;;;;9.13;1.60;;;21.00;1.00;;;;;;5035880;28;20188;-86
2023/06/26 08:52:34;;;;;;;9.87;2.50;;;21.10;1.00;;;;;;5035154;28;20172;-84
2023/06/26 08:55:06;;;;;;;4.13;1.80;;;21.30;1.00;;;;;;5039650;28;20267;-86
2023/06/26 08:57:32;;;;;;;3.73;1.77;;;21.20;1.00;;;;;;5055305;28;20173;-86
2023/06/26 09:00:01;;;;;;;7.93;3.00;;;21.10;1.00;;;;;;5052406;28;20291;-84
2023/06/26 09:02:27;;;;;;;13.53;7.67;;;21.20;1.00;;;;;;5056361;28;20150;-84
2023/06/26 09:04:56;;;;;;;7.30;1.90;;;21.40;1.00;;;;;;5056994;28;20171;-86
2023/06/26 09:07:22;;;;;;;8.63;3.00;;;21.50;1.00;;;;;;5074773;28;20161;-81
2023/06/26 09:09:47;;;;;;;6.13;2.50;;;21.60;1.00;;;;;;5073729;28;20166;-84
2023/06/26 09:12:16;;;;;;;6.73;1.63;;;21.50;1.00;;;;;;5071881;28;20179;-87
2023/06/26 09:14:43;;;;;;;4.60;1.87;;;21.60;1.00;;;;;;5055847;28;20182;-83
2023/06/26 09:17:08;;;;;;;9.77;3.43;;;21.60;1.00;;;;;;5076385;28;20149;-81
2023/06/26 09:19:37;;;;;;;4.47;1.93;;;21.50;1.00;;;;;;5077088;28;20661;-87
2023/06/26 09:22:03;;;;;;;4.37;2.10;;;21.60;1.00;;;;;;5062836;28;20177;-85
2023/06/26 09:24:31;;;;;;;8.17;2.83;;;21.30;1.00;;;;;;5078239;28;20244;-82
2023/06/26 09:26:59;;;;;;;11.00;6.60;;;21.20;1.00;;;;;;5056551;28;20182;-88
2023/06/26 09:29:26;;;;;;;5.60;2.43;;;21.40;1.00;;;;;;5040672;28;20173;-87
2023/06/26 09:31:52;;;;;;;7.73;2.97;;;21.30;1.00;;;;;;5074351;28;20175;-83
2023/06/26 09:34:20;;;;;;;4.73;1.67;;;21.40;1.00;;;;;;5060148;28;20169;-84
2023/06/26 09:36:47;;;;;;;6.03;1.70;;;21.50;1.00;;;;;;5077839;28;20155;-83
2023/06/26 09:39:15;;;;;;;5.23;1.73;;;21.70;99.90;;;;;;5060013;28;20186;-86
2023/06/26 09:41:44;;;;;;;6.10;1.70;;;21.90;99.90;;;;;;5077381;28;20214;-84
2023/06/26 09:44:14;;;;;;;5.13;1.90;;;22.20;99.90;;;;;;5075964;28;20171;-85
2023/06/26 09:46:40;;;;;;;9.00;6.53;;;22.30;99.90;;;;;;5060041;28;20182;-84
2023/06/26 09:49:08;;;;;;;6.33;2.47;;;22.20;99.90;;;;;;5060179;28;20194;-82
2023/06/26 09:51:37;;;;;;;11.70;5.80;;;22.40;99.90;;;;;;5057896;28;20249;-84
2023/06/26 09:54:04;;;;;;;38.03;21.70;;;22.20;99.90;;;;;;5056727;28;20196;-86
2023/06/26 09:56:33;;;;;;;5.27;2.50;;;21.90;99.90;;;;;;5074466;28;20291;-87
2023/06/26 09:59:02;;;;;;;4.73;2.10;;;21.90;99.90;;;;;;5061169;28;20211;-90
2023/06/26 10:01:30;;;;;;;6.50;1.83;;;21.80;99.90;;;;;;5060024;28;20186;-88
2023/06/26 10:03:58;;;;;;;5.33;1.90;;;22.10;99.90;;;;;;5079016;28;20164;-85
2023/06/26 10:06:40;;;;;;;6.73;2.10;;;22.30;99.90;;;;;;5062096;28;20192;-86
2023/06/26 10:09:08;;;;;;;4.07;1.80;;;22.20;23.70;;;;;;5076609;28;20179;-83
2023/06/26 10:11:52;;;;;;;4.17;2.40;;;22.10;19.90;;;;;;5079256;28;20175;-85
2023/06/26 10:14:20;;;;;;;5.47;2.17;;;22.10;1.00;;;;;;5075044;28;20261;-85
2023/06/26 10:16:49;;;;;;;4.37;1.90;;;22.30;1.00;;;;;;5076032;28;20181;-86
2023/06/26 10:19:21;;;;;;;15.17;4.20;;;22.40;1.00;;;;;;5040492;28;20223;-87
2023/06/26 10:21:47;;;;;;;10.27;5.43;;;22.30;1.00;;;;;;5049410;28;20254;-86
2023/06/26 10:24:13;;;;;;;6.80;2.30;;;22.30;1.00;;;;;;5041576;28;20189;-86
2023/06/26 10:26:44;;;;;;;5.67;1.90;;;22.50;99.90;;;;;;5057806;28;20163;-85
2023/06/26 10:29:12;;;;;;;4.60;2.10;;;22.60;1.10;;;;;;5076444;28;20222;-84
2023/06/26 10:31:42;;;;;;;7.40;2.20;;;22.80;99.90;;;;;;5060446;28;20159;-82
2023/06/26 10:34:08;;;;;;;5.83;1.83;;;22.80;99.90;;;;;;5062342;28;20183;-84
2023/06/26 10:36:36;;;;;;;5.47;2.20;;;22.70;1.00;;;;;;5079790;28;20160;-83
2023/06/26 10:39:06;;;;;;;6.17;4.37;;;22.70;1.00;;;;;;5079908;28;20191;-83
2023/06/26 10:41:42;;;;;;;11.53;7.70;;;22.60;99.90;;;;;;5078993;28;20170;-86
2023/06/26 10:44:16;;;;;;;10.77;7.07;;;22.30;1.00;;;;;;5077064;28;20162;-85
2023/06/26 10:46:53;;;;;;;9.90;6.10;;;22.40;1.00;;;;;;5057638;28;20172;-84
2023/06/26 10:49:29;;;;;;;5.37;2.07;;;22.50;1.00;;;;;;5059470;28;20169;-85
2023/06/26 10:52:01;;;;;;;6.63;1.97;;;22.70;1.00;;;;;;5057352;28;20159;-90
2023/06/26 10:54:30;;;;;;;4.00;1.80;;;22.30;99.90;;;;;;5055574;28;20572;-86
2023/06/26 10:56:56;;;;;;;6.53;2.20;;;22.30;99.90;;;;;;5048401;28;20245;-85
2023/06/26 10:59:26;;;;;;;5.87;2.13;;;22.30;99.90;;;;;;5050256;28;20216;-86
2023/06/26 11:01:58;;;;;;;6.50;2.17;;;22.50;99.90;;;;;;5072019;28;20186;-86
2023/06/26 11:04:49;;;;;;;5.10;1.90;;;22.60;99.90;;;;;;5064690;28;20228;-86
2023/06/26 11:07:23;;;;;;;6.60;2.30;;;22.30;1.00;;;;;;5063090;28;20529;-85
2023/06/26 11:10:08;;;;;;;5.20;2.50;;;22.20;1.00;;;;;;5042556;28;20200;-83
2023/06/26 11:12:38;;;;;;;7.77;2.40;;;21.90;1.00;;;;;;5075801;28;20221;-84
2023/06/26 11:15:11;;;;;;;4.13;2.53;;;22.10;8.10;;;;;;5073726;28;20194;-85
2023/06/26 11:17:37;;;;;;;5.70;2.50;;;22.10;18.30;;;;;;5074300;28;20168;-82
2023/06/26 11:20:10;;;;;;;6.33;2.30;;;22.00;45.40;;;;;;5056502;28;20282;-84
2023/06/26 11:22:37;;;;;;;4.37;2.43;;;22.10;89.60;;;;;;5074913;28;20166;-85
2023/06/26 11:25:04;;;;;;;4.57;2.10;;;22.20;1.00;;;;;;5074736;28;20171;-83
2023/06/26 11:27:36;;;;;;;7.13;2.70;;;22.20;1.00;;;;;;5050317;28;20634;-84
2023/06/26 11:30:02;;;;;;;7.43;2.60;;;22.20;82.10;;;;;;5077663;28;20193;-85
2023/06/26 11:32:28;;;;;;;4.40;2.60;;;21.90;56.70;;;;;;5078140;28;20174;-84
2023/06/26 11:34:55;;;;;;;5.00;2.20;;;22.00;1.00;;;;;;5076218;28;20328;-81
2023/06/26 11:37:22;;;;;;;4.83;2.57;;;22.10;1.00;;;;;;5057713;28;20177;-83
2023/06/26 11:39:51;;;;;;;4.40;1.93;;;22.20;1.00;;;;;;5053404;28;20220;-85
2023/06/26 11:42:17;;;;;;;5.13;1.83;;;22.50;1.00;;;;;;5074407;28;20156;-84
2023/06/26 11:44:43;;;;;;;4.87;1.93;;;22.40;1.00;;;;;;5058452;28;20204;-85
2023/06/26 11:47:19;;;;;;;4.97;2.00;;;22.60;99.90;;;;;;5073823;28;20160;-85
2023/06/26 11:49:47;;;;;;;6.27;1.80;;;22.40;1.00;;;;;;5070410;28;20187;-85
2023/06/26 11:52:14;;;;;;;6.80;2.33;;;22.30;99.90;;;;;;5056877;28;20159;-83
2023/06/26 11:54:40;;;;;;;6.43;2.10;;;22.50;99.90;;;;;;5060940;28;20199;-82
2023/06/26 11:57:05;;;;;;;4.77;2.10;;;22.70;1.00;;;;;;5059414;28;20238;-84
2023/06/26 11:59:39;;;;;;;5.83;2.20;;;22.80;99.90;;;;;;5075011;28;20209;-82
2023/06/26 12:02:10;;;;;;;7.67;4.77;;;22.80;1.00;;;;;;5073804;28;20266;-86
2023/06/26 12:04:42;;;;;;;5.63;3.23;;;22.90;1.00;;;;;;5055453;28;20194;-86
2023/06/26 12:07:09;;;;;;;24.83;14.23;;;22.90;1.00;;;;;;5075057;28;20170;-86
2023/06/26 12:09:45;;;;;;;3.10;1.70;;;23.20;99.90;;;;;;5057971;28;20269;-86
2023/06/26 12:12:13;;;;;;;3.27;1.73;;;23.20;99.90;;;;;;5055908;28;20662;-83
2023/06/26 12:14:41;;;;;;;3.07;1.53;;;23.20;1.00;;;;;;5057181;28;20200;-83
2023/06/26 12:17:10;;;;;;;5.50;1.63;;;23.30;18.00;;;;;;5057263;28;20156;-86
2023/06/26 12:19:38;;;;;;;4.23;1.80;;;23.30;1.00;;;;;;5075903;28;20191;-84
2023/06/26 12:22:08;;;;;;;5.03;1.93;;;23.30;99.90;;;;;;5075826;28;20187;-86
2023/06/26 12:24:37;;;;;;;4.60;1.70;;;23.20;99.90;;;;;;5074643;28;20180;-84
2023/06/26 12:27:07;;;;;;;4.63;2.53;;;23.20;99.90;;;;;;5075919;28;20144;-85
2023/06/26 12:29:33;;;;;;;3.57;1.60;;;23.20;99.90;;;;;;5039348;28;20183;-82
2023/06/26 12:32:00;;;;;;;22.47;14.47;;;23.30;1.00;;;;;;5075045;28;20175;-83
2023/06/26 12:34:29;;;;;;;9.70;3.07;;;23.30;1.00;;;;;;5058522;28;20195;-83
2023/06/26 12:37:04;;;;;;;4.00;1.63;;;23.50;99.90;;;;;;5045728;28;20178;-82
2023/06/26 12:39:51;;;;;;;3.93;1.60;;;23.70;99.90;;;;;;5076364;28;20216;-87
2023/06/26 12:42:23;;;;;;;4.43;2.00;;;23.90;1.00;;;;;;5055760;28;20169;-85
2023/06/26 12:44:49;;;;;;;5.83;1.93;;;23.80;99.90;;;;;;5067317;28;20268;-84
2023/06/26 12:47:17;;;;;;;6.60;1.97;;;23.50;1.00;;;;;;5073273;28;20201;-88
2023/06/26 12:49:45;;;;;;;5.03;2.27;;;23.40;36.40;;;;;;5068004;28;20180;-83
2023/06/26 12:52:14;;;;;;;5.30;2.40;;;23.30;99.90;;;;;;5055627;28;20176;-87
2023/06/26 12:54:43;;;;;;;4.57;2.07;;;23.30;1.00;;;;;;5049313;28;20215;-85